sensor_id;sensor_type;location;lat;lon;timestamp;pressure;altitude;pressure_sealevel;temperature;humidity
80393;BME280;69719;45.544;10.218;2023-05-10T00:01:52;99627.81;;;16.32;64.28
80393;BME280;69719;45.544;10.218;2023-05-10T00:04:17;99618.56;;;16.14;63.88
80393;BME280;69719;45.544;10.218;2023-05-10T00:06:43;99626.50;;;16.25;65.42
80393;BME280;69719;45.544;10.218;2023-05-10T00:09:08;99629.78;;;16.00;63.09
80393;BME280;69719;45.544;10.218;2023-05-10T00:11:34;99635.59;;;16.07;65.81
80393;BME280;69719;45.544;10.218;2023-05-10T00:14:00;99642.91;;;16.00;67.03
80393;BME280;69719;45.544;10.218;2023-05-10T00:16:25;99638.72;;;15.99;66.11
80393;BME280;69719;45.544;10.218;2023-05-10T00:18:50;99625.84;;;15.97;66.81
80393;BME280;69719;45.544;10.218;2023-05-10T00:21:16;99637.72;;;16.15;65.76
80393;BME280;69719;45.544;10.218;2023-05-10T00:23:41;99632.19;;;16.06;66.87
80393;BME280;69719;45.544;10.218;2023-05-10T00:26:07;99636.16;;;16.14;64.67
80393;BME280;69719;45.544;10.218;2023-05-10T00:28:32;99626.63;;;15.98;62.94
80393;BME280;69719;45.544;10.218;2023-05-10T00:30:58;99628.78;;;16.11;64.84
80393;BME280;69719;45.544;10.218;2023-05-10T00:33:23;99629.63;;;16.21;66.10
80393;BME280;69719;45.544;10.218;2023-05-10T00:35:49;99623.97;;;15.88;66.60
80393;BME280;69719;45.544;10.218;2023-05-10T00:38:14;99607.75;;;16.06;65.03
80393;BME280;69719;45.544;10.218;2023-05-10T00:40:40;99611.72;;;16.08;66.93
80393;BME280;69719;45.544;10.218;2023-05-10T00:43:05;99602.28;;;16.07;67.25
80393;BME280;69719;45.544;10.218;2023-05-10T00:45:33;99594.94;;;16.09;65.87
80393;BME280;69719;45.544;10.218;2023-05-10T00:48:04;99597.03;;;16.12;66.67
80393;BME280;69719;45.544;10.218;2023-05-10T00:50:30;99593.88;;;16.10;67.10
80393;BME280;69719;45.544;10.218;2023-05-10T00:52:58;99589.94;;;16.08;67.86
80393;BME280;69719;45.544;10.218;2023-05-10T00:55:24;99590.44;;;16.05;68.77
80393;BME280;69719;45.544;10.218;2023-05-10T00:57:50;99589.69;;;15.58;69.83
80393;BME280;69719;45.544;10.218;2023-05-10T01:00:17;99582.59;;;15.53;71.19
80393;BME280;69719;45.544;10.218;2023-05-10T01:02:46;99581.56;;;15.59;70.68
80393;BME280;69719;45.544;10.218;2023-05-10T01:05:12;99579.69;;;15.55;71.25
80393;BME280;69719;45.544;10.218;2023-05-10T01:07:39;99580.56;;;15.65;70.88
80393;BME280;69719;45.544;10.218;2023-05-10T01:10:06;99572.25;;;15.83;71.52
80393;BME280;69719;45.544;10.218;2023-05-10T01:12:33;99566.66;;;15.70;72.82
80393;BME280;69719;45.544;10.218;2023-05-10T01:15:00;99562.25;;;15.80;71.94
80393;BME280;69719;45.544;10.218;2023-05-10T01:17:27;99560.19;;;15.82;73.43
80393;BME280;69719;45.544;10.218;2023-05-10T01:19:52;99556.00;;;15.86;71.83
80393;BME280;69719;45.544;10.218;2023-05-10T01:31:28;99563.06;;;15.81;71.21
80393;BME280;69719;45.544;10.218;2023-05-10T01:36:12;99569.59;;;15.73;69.34
80393;BME280;69719;45.544;10.218;2023-05-10T01:38:47;99563.81;;;15.71;69.82
80393;BME280;69719;45.544;10.218;2023-05-10T01:41:28;99552.56;;;15.34;72.62
80393;BME280;69719;45.544;10.218;2023-05-10T01:47:03;99561.06;;;15.46;73.62
80393;BME280;69719;45.544;10.218;2023-05-10T01:49:54;99545.75;;;15.38;74.30
80393;BME280;69719;45.544;10.218;2023-05-10T01:52:25;99549.66;;;15.35;71.83
80393;BME280;69719;45.544;10.218;2023-05-10T01:54:59;99557.88;;;15.44;71.08
80393;BME280;69719;45.544;10.218;2023-05-10T01:57:26;99548.00;;;15.56;70.75
80393;BME280;69719;45.544;10.218;2023-05-10T01:59:53;99560.66;;;15.69;71.70
80393;BME280;69719;45.544;10.218;2023-05-10T02:02:20;99559.63;;;15.75;72.72
80393;BME280;69719;45.544;10.218;2023-05-10T02:04:47;99552.94;;;15.48;73.13
80393;BME280;69719;45.544;10.218;2023-05-10T02:07:15;99559.94;;;15.42;72.26
80393;BME280;69719;45.544;10.218;2023-05-10T02:09:44;99548.16;;;15.39;70.58
80393;BME280;69719;45.544;10.218;2023-05-10T02:12:13;99564.22;;;15.48;71.38
80393;BME280;69719;45.544;10.218;2023-05-10T02:14:39;99560.50;;;15.44;70.47
80393;BME280;69719;45.544;10.218;2023-05-10T02:17:07;99568.28;;;15.34;72.98
80393;BME280;69719;45.544;10.218;2023-05-10T02:19:34;99557.66;;;15.46;73.70
80393;BME280;69719;45.544;10.218;2023-05-10T02:22:01;99569.50;;;15.58;73.35
80393;BME280;69719;45.544;10.218;2023-05-10T02:24:29;99576.78;;;15.46;74.60
80393;BME280;69719;45.544;10.218;2023-05-10T02:26:55;99575.25;;;15.55;73.21
80393;BME280;69719;45.544;10.218;2023-05-10T02:29:23;99580.09;;;15.36;74.75
80393;BME280;69719;45.544;10.218;2023-05-10T02:31:52;99577.69;;;15.30;73.62
80393;BME280;69719;45.544;10.218;2023-05-10T02:34:20;99573.16;;;15.57;71.09
80393;BME280;69719;45.544;10.218;2023-05-10T02:36:47;99574.53;;;15.28;75.25
80393;BME280;69719;45.544;10.218;2023-05-10T02:39:14;99579.63;;;15.08;74.96
80393;BME280;69719;45.544;10.218;2023-05-10T02:41:41;99576.44;;;15.01;76.66
80393;BME280;69719;45.544;10.218;2023-05-10T02:44:08;99573.75;;;15.27;75.54
80393;BME280;69719;45.544;10.218;2023-05-10T02:46:35;99580.81;;;14.90;75.98
80393;BME280;69719;45.544;10.218;2023-05-10T02:49:02;99575.69;;;15.05;76.99
80393;BME280;69719;45.544;10.218;2023-05-10T02:51:31;99569.91;;;15.03;76.52
80393;BME280;69719;45.544;10.218;2023-05-10T02:54:03;99565.25;;;14.79;76.68
80393;BME280;69719;45.544;10.218;2023-05-10T02:56:33;99566.13;;;14.89;74.59
80393;BME280;69719;45.544;10.218;2023-05-10T02:58:59;99567.19;;;14.61;75.26
80393;BME280;69719;45.544;10.218;2023-05-10T03:01:25;99553.63;;;14.69;73.46
80393;BME280;69719;45.544;10.218;2023-05-10T03:03:50;99559.94;;;14.74;77.72
80393;BME280;69719;45.544;10.218;2023-05-10T03:06:16;99555.84;;;14.83;77.34
80393;BME280;69719;45.544;10.218;2023-05-10T03:08:43;99559.53;;;14.87;76.08
80393;BME280;69719;45.544;10.218;2023-05-10T03:14:21;99563.09;;;14.71;78.00
80393;BME280;69719;45.544;10.218;2023-05-10T03:16:54;99555.72;;;14.67;78.82
80393;BME280;69719;45.544;10.218;2023-05-10T03:19:43;99560.88;;;14.89;77.14
80393;BME280;69719;45.544;10.218;2023-05-10T03:22:13;99560.56;;;14.81;76.79
80393;BME280;69719;45.544;10.218;2023-05-10T03:24:42;99558.78;;;14.86;78.60
80393;BME280;69719;45.544;10.218;2023-05-10T03:27:08;99551.69;;;14.87;75.57
80393;BME280;69719;45.544;10.218;2023-05-10T03:29:36;99542.81;;;14.88;77.04
80393;BME280;69719;45.544;10.218;2023-05-10T03:32:02;99541.31;;;15.02;76.97
80393;BME280;69719;45.544;10.218;2023-05-10T03:34:29;99545.69;;;14.86;79.26
80393;BME280;69719;45.544;10.218;2023-05-10T03:36:55;99540.47;;;14.91;78.91
80393;BME280;69719;45.544;10.218;2023-05-10T03:39:21;99536.09;;;15.02;74.72
80393;BME280;69719;45.544;10.218;2023-05-10T03:41:47;99541.22;;;14.55;77.44
80393;BME280;69719;45.544;10.218;2023-05-10T03:44:12;99544.22;;;14.68;78.01
80393;BME280;69719;45.544;10.218;2023-05-10T03:46:37;99539.94;;;14.89;78.43
80393;BME280;69719;45.544;10.218;2023-05-10T03:49:03;99530.19;;;14.80;79.71
80393;BME280;69719;45.544;10.218;2023-05-10T03:51:28;99531.09;;;15.00;76.76
80393;BME280;69719;45.544;10.218;2023-05-10T03:53:54;99524.59;;;15.08;78.71
80393;BME280;69719;45.544;10.218;2023-05-10T03:56:20;99532.78;;;14.80;79.69
80393;BME280;69719;45.544;10.218;2023-05-10T03:58:46;99531.81;;;14.91;80.91
80393;BME280;69719;45.544;10.218;2023-05-10T04:01:12;99532.41;;;14.98;79.59
80393;BME280;69719;45.544;10.218;2023-05-10T04:03:37;99527.19;;;15.03;80.00
80393;BME280;69719;45.544;10.218;2023-05-10T04:06:03;99525.00;;;14.90;79.51
80393;BME280;69719;45.544;10.218;2023-05-10T04:08:29;99519.84;;;15.00;79.75
80393;BME280;69719;45.544;10.218;2023-05-10T04:10:54;99519.44;;;15.18;77.67
80393;BME280;69719;45.544;10.218;2023-05-10T04:13:20;99520.69;;;15.05;78.46
80393;BME280;69719;45.544;10.218;2023-05-10T04:15:46;99515.13;;;14.97;79.07
80393;BME280;69719;45.544;10.218;2023-05-10T04:18:11;99509.88;;;15.02;78.54
80393;BME280;69719;45.544;10.218;2023-05-10T04:20:37;99508.13;;;14.76;78.84
80393;BME280;69719;45.544;10.218;2023-05-10T04:23:02;99508.00;;;14.92;77.67
80393;BME280;69719;45.544;10.218;2023-05-10T04:25:28;99506.97;;;14.61;79.94
80393;BME280;69719;45.544;10.218;2023-05-10T04:27:53;99511.19;;;14.62;79.39
80393;BME280;69719;45.544;10.218;2023-05-10T04:30:19;99506.38;;;14.54;81.13
80393;BME280;69719;45.544;10.218;2023-05-10T04:32:44;99505.47;;;14.71;80.90
80393;BME280;69719;45.544;10.218;2023-05-10T04:35:10;99511.66;;;14.33;82.64
80393;BME280;69719;45.544;10.218;2023-05-10T04:37:35;99508.16;;;14.49;82.43
80393;BME280;69719;45.544;10.218;2023-05-10T04:40:02;99511.75;;;14.69;81.76
80393;BME280;69719;45.544;10.218;2023-05-10T04:42:28;99517.72;;;14.65;83.82
80393;BME280;69719;45.544;10.218;2023-05-10T04:44:54;99503.47;;;14.83;81.53
80393;BME280;69719;45.544;10.218;2023-05-10T04:47:20;99506.84;;;14.78;80.14
80393;BME280;69719;45.544;10.218;2023-05-10T04:49:45;99507.84;;;15.09;79.65
80393;BME280;69719;45.544;10.218;2023-05-10T04:52:11;99511.66;;;14.91;79.35
80393;BME280;69719;45.544;10.218;2023-05-10T04:54:36;99521.81;;;14.83;80.46
80393;BME280;69719;45.544;10.218;2023-05-10T04:57:02;99507.25;;;14.97;79.55
80393;BME280;69719;45.544;10.218;2023-05-10T04:59:27;99509.06;;;14.96;79.42
80393;BME280;69719;45.544;10.218;2023-05-10T05:01:53;99512.69;;;14.90;80.49
80393;BME280;69719;45.544;10.218;2023-05-10T05:04:18;99515.06;;;14.92;82.17
80393;BME280;69719;45.544;10.218;2023-05-10T05:06:44;99516.22;;;14.74;82.50
80393;BME280;69719;45.544;10.218;2023-05-10T05:09:09;99529.91;;;14.81;81.01
80393;BME280;69719;45.544;10.218;2023-05-10T05:11:35;99525.44;;;14.77;82.62
80393;BME280;69719;45.544;10.218;2023-05-10T05:14:00;99530.25;;;14.90;82.03
80393;BME280;69719;45.544;10.218;2023-05-10T05:16:26;99529.66;;;14.83;82.42
80393;BME280;69719;45.544;10.218;2023-05-10T05:18:52;99527.44;;;14.64;83.66
80393;BME280;69719;45.544;10.218;2023-05-10T05:21:19;99527.13;;;14.61;83.87
80393;BME280;69719;45.544;10.218;2023-05-10T05:23:45;99535.84;;;14.72;84.61
80393;BME280;69719;45.544;10.218;2023-05-10T05:26:11;99542.69;;;14.73;85.30
80393;BME280;69719;45.544;10.218;2023-05-10T05:28:37;99542.09;;;14.65;83.32
80393;BME280;69719;45.544;10.218;2023-05-10T05:31:07;99546.88;;;14.74;83.34
80393;BME280;69719;45.544;10.218;2023-05-10T05:33:33;99555.09;;;14.55;85.04
80393;BME280;69719;45.544;10.218;2023-05-10T05:36:05;99554.81;;;14.52;85.01
80393;BME280;69719;45.544;10.218;2023-05-10T05:38:30;99548.91;;;14.40;85.13
80393;BME280;69719;45.544;10.218;2023-05-10T05:40:56;99550.69;;;14.34;85.61
80393;BME280;69719;45.544;10.218;2023-05-10T05:43:22;99552.34;;;14.40;84.77
80393;BME280;69719;45.544;10.218;2023-05-10T05:45:47;99562.25;;;14.38;85.29
80393;BME280;69719;45.544;10.218;2023-05-10T05:48:13;99560.13;;;14.35;85.05
80393;BME280;69719;45.544;10.218;2023-05-10T05:50:38;99568.97;;;14.29;85.94
80393;BME280;69719;45.544;10.218;2023-05-10T05:53:04;99570.91;;;14.39;85.18
80393;BME280;69719;45.544;10.218;2023-05-10T05:55:29;99584.28;;;14.42;84.64
80393;BME280;69719;45.544;10.218;2023-05-10T05:57:57;99581.38;;;14.39;85.04
80393;BME280;69719;45.544;10.218;2023-05-10T06:00:22;99575.22;;;14.28;85.98
80393;BME280;69719;45.544;10.218;2023-05-10T06:02:48;99581.91;;;14.19;85.17
80393;BME280;69719;45.544;10.218;2023-05-10T06:05:13;99585.31;;;14.20;86.22
80393;BME280;69719;45.544;10.218;2023-05-10T06:07:40;99581.91;;;14.19;85.96
80393;BME280;69719;45.544;10.218;2023-05-10T06:10:08;99579.66;;;14.28;85.16
80393;BME280;69719;45.544;10.218;2023-05-10T06:12:33;99578.41;;;14.30;85.70
80393;BME280;69719;45.544;10.218;2023-05-10T06:14:59;99586.47;;;14.29;86.50
80393;BME280;69719;45.544;10.218;2023-05-10T06:17:24;99593.84;;;14.32;86.52
80393;BME280;69719;45.544;10.218;2023-05-10T06:19:50;99591.66;;;14.45;86.91
80393;BME280;69719;45.544;10.218;2023-05-10T06:22:15;99595.47;;;14.38;86.18
80393;BME280;69719;45.544;10.218;2023-05-10T06:24:41;99606.94;;;14.32;87.18
80393;BME280;69719;45.544;10.218;2023-05-10T06:27:06;99593.72;;;14.22;86.88
80393;BME280;69719;45.544;10.218;2023-05-10T06:29:32;99601.88;;;14.25;86.78
80393;BME280;69719;45.544;10.218;2023-05-10T06:31:58;99602.50;;;14.32;86.35
80393;BME280;69719;45.544;10.218;2023-05-10T06:34:24;99599.50;;;14.24;86.28
80393;BME280;69719;45.544;10.218;2023-05-10T06:36:49;99608.06;;;14.19;86.28
80393;BME280;69719;45.544;10.218;2023-05-10T06:39:15;99606.47;;;14.35;86.05
80393;BME280;69719;45.544;10.218;2023-05-10T06:41:41;99606.25;;;14.41;85.86
80393;BME280;69719;45.544;10.218;2023-05-10T06:44:07;99608.81;;;14.36;85.02
80393;BME280;69719;45.544;10.218;2023-05-10T06:46:33;99607.19;;;14.57;86.04
80393;BME280;69719;45.544;10.218;2023-05-10T06:48:59;99614.88;;;14.63;85.10
80393;BME280;69719;45.544;10.218;2023-05-10T06:51:24;99608.63;;;14.69;85.29
80393;BME280;69719;45.544;10.218;2023-05-10T06:53:50;99609.22;;;14.77;85.06
80393;BME280;69719;45.544;10.218;2023-05-10T06:56:15;99604.47;;;14.74;84.53
80393;BME280;69719;45.544;10.218;2023-05-10T06:58:41;99606.41;;;14.56;83.63
80393;BME280;69719;45.544;10.218;2023-05-10T07:01:06;99609.16;;;14.66;83.90
80393;BME280;69719;45.544;10.218;2023-05-10T07:03:44;99611.09;;;14.81;83.01
80393;BME280;69719;45.544;10.218;2023-05-10T07:06:11;99602.31;;;14.65;84.09
80393;BME280;69719;45.544;10.218;2023-05-10T07:08:37;99603.25;;;14.81;82.34
80393;BME280;69719;45.544;10.218;2023-05-10T07:11:03;99606.41;;;14.83;82.89
80393;BME280;69719;45.544;10.218;2023-05-10T07:13:30;99606.31;;;14.73;84.62
80393;BME280;69719;45.544;10.218;2023-05-10T07:15:56;99605.38;;;14.57;83.28
80393;BME280;69719;45.544;10.218;2023-05-10T07:18:22;99600.84;;;14.75;83.46
80393;BME280;69719;45.544;10.218;2023-05-10T07:20:47;99608.16;;;14.73;83.21
80393;BME280;69719;45.544;10.218;2023-05-10T07:23:13;99613.38;;;14.73;83.32
80393;BME280;69719;45.544;10.218;2023-05-10T07:25:38;99605.59;;;14.78;83.90
80393;BME280;69719;45.544;10.218;2023-05-10T07:28:04;99617.63;;;14.52;84.64
80393;BME280;69719;45.544;10.218;2023-05-10T07:30:29;99613.50;;;14.56;85.52
80393;BME280;69719;45.544;10.218;2023-05-10T07:32:54;99626.88;;;14.59;84.42
80393;BME280;69719;45.544;10.218;2023-05-10T07:35:20;99618.56;;;14.67;84.17
80393;BME280;69719;45.544;10.218;2023-05-10T07:37:46;99619.50;;;14.56;85.11
80393;BME280;69719;45.544;10.218;2023-05-10T07:40:11;99627.06;;;14.53;84.56
80393;BME280;69719;45.544;10.218;2023-05-10T07:42:37;99620.25;;;14.52;85.54
80393;BME280;69719;45.544;10.218;2023-05-10T07:45:03;99625.88;;;14.65;84.17
80393;BME280;69719;45.544;10.218;2023-05-10T07:47:29;99628.13;;;14.52;85.17
80393;BME280;69719;45.544;10.218;2023-05-10T07:49:54;99623.53;;;14.42;85.03
80393;BME280;69719;45.544;10.218;2023-05-10T07:52:20;99623.53;;;14.42;84.73
80393;BME280;69719;45.544;10.218;2023-05-10T07:54:46;99633.47;;;14.40;85.28
80393;BME280;69719;45.544;10.218;2023-05-10T07:57:11;99635.19;;;14.56;85.21
80393;BME280;69719;45.544;10.218;2023-05-10T07:59:39;99629.03;;;14.67;84.96
80393;BME280;69719;45.544;10.218;2023-05-10T08:02:05;99627.72;;;14.92;82.25
80393;BME280;69719;45.544;10.218;2023-05-10T08:04:37;99633.50;;;14.94;82.76
80393;BME280;69719;45.544;10.218;2023-05-10T08:07:02;99633.81;;;15.02;83.02
80393;BME280;69719;45.544;10.218;2023-05-10T08:09:28;99641.13;;;14.74;83.75
80393;BME280;69719;45.544;10.218;2023-05-10T08:11:53;99633.94;;;14.86;84.37
80393;BME280;69719;45.544;10.218;2023-05-10T08:14:19;99642.34;;;14.88;83.64
80393;BME280;69719;45.544;10.218;2023-05-10T08:16:44;99648.19;;;14.95;82.43
80393;BME280;69719;45.544;10.218;2023-05-10T08:19:10;99641.94;;;15.01;82.10
80393;BME280;69719;45.544;10.218;2023-05-10T08:21:35;99638.09;;;14.82;83.70
80393;BME280;69719;45.544;10.218;2023-05-10T08:24:01;99648.97;;;14.68;84.49
80393;BME280;69719;45.544;10.218;2023-05-10T08:26:27;99642.56;;;14.59;84.58
80393;BME280;69719;45.544;10.218;2023-05-10T08:28:52;99645.84;;;14.72;84.47
80393;BME280;69719;45.544;10.218;2023-05-10T08:31:18;99641.53;;;14.87;84.22
80393;BME280;69719;45.544;10.218;2023-05-10T08:33:43;99645.34;;;14.75;83.80
80393;BME280;69719;45.544;10.218;2023-05-10T08:36:09;99645.06;;;14.71;84.57
80393;BME280;69719;45.544;10.218;2023-05-10T08:38:35;99641.56;;;14.60;83.76
80393;BME280;69719;45.544;10.218;2023-05-10T08:41:02;99651.03;;;14.66;84.72
80393;BME280;69719;45.544;10.218;2023-05-10T08:43:28;99648.81;;;14.80;84.04
80393;BME280;69719;45.544;10.218;2023-05-10T08:46:00;99644.59;;;15.06;83.45
80393;BME280;69719;45.544;10.218;2023-05-10T08:48:29;99644.69;;;15.16;81.70
80393;BME280;69719;45.544;10.218;2023-05-10T08:50:58;99645.47;;;15.16;82.57
80393;BME280;69719;45.544;10.218;2023-05-10T08:53:26;99648.53;;;15.35;82.13
80393;BME280;69719;45.544;10.218;2023-05-10T08:55:53;99640.69;;;15.08;81.86
80393;BME280;69719;45.544;10.218;2023-05-10T08:58:19;99643.44;;;14.92;83.09
80393;BME280;69719;45.544;10.218;2023-05-10T09:00:45;99641.16;;;15.00;82.89
80393;BME280;69719;45.544;10.218;2023-05-10T09:03:11;99648.41;;;15.25;82.37
80393;BME280;69719;45.544;10.218;2023-05-10T09:05:37;99645.31;;;15.28;81.75
80393;BME280;69719;45.544;10.218;2023-05-10T09:08:02;99647.94;;;15.28;81.89
80393;BME280;69719;45.544;10.218;2023-05-10T09:10:28;99636.38;;;15.24;83.01
80393;BME280;69719;45.544;10.218;2023-05-10T09:12:58;99642.25;;;15.41;79.84
80393;BME280;69719;45.544;10.218;2023-05-10T09:15:24;99642.75;;;15.38;81.71
80393;BME280;69719;45.544;10.218;2023-05-10T09:17:49;99646.97;;;15.39;80.46
80393;BME280;69719;45.544;10.218;2023-05-10T09:20:15;99646.25;;;15.17;81.51
80393;BME280;69719;45.544;10.218;2023-05-10T09:22:42;99635.16;;;15.05;81.53
80393;BME280;69719;45.544;10.218;2023-05-10T09:25:15;99649.25;;;14.99;81.26
80393;BME280;69719;45.544;10.218;2023-05-10T09:27:44;99643.38;;;15.18;82.26
80393;BME280;69719;45.544;10.218;2023-05-10T09:30:15;99643.75;;;15.32;83.07
80393;BME280;69719;45.544;10.218;2023-05-10T09:32:46;99637.38;;;15.18;80.64
80393;BME280;69719;45.544;10.218;2023-05-10T09:35:13;99638.28;;;15.02;82.22
80393;BME280;69719;45.544;10.218;2023-05-10T09:37:40;99639.66;;;15.09;80.86
80393;BME280;69719;45.544;10.218;2023-05-10T09:45:31;99630.47;;;15.75;80.90
80393;BME280;69719;45.544;10.218;2023-05-10T09:47:57;99630.47;;;15.80;77.66
80393;BME280;69719;45.544;10.218;2023-05-10T09:50:24;99629.41;;;15.76;81.09
80393;BME280;69719;45.544;10.218;2023-05-10T09:52:57;99632.31;;;15.85;81.88
80393;BME280;69719;45.544;10.218;2023-05-10T09:55:25;99632.63;;;15.88;80.16
80393;BME280;69719;45.544;10.218;2023-05-10T09:58:01;99633.88;;;15.76;80.23
80393;BME280;69719;45.544;10.218;2023-05-10T10:00:27;99631.97;;;15.66;79.92
80393;BME280;69719;45.544;10.218;2023-05-10T10:02:57;99625.97;;;15.71;80.37
80393;BME280;69719;45.544;10.218;2023-05-10T10:05:35;99621.84;;;15.80;80.34
80393;BME280;69719;45.544;10.218;2023-05-10T10:08:03;99623.56;;;15.64;80.46
80393;BME280;69719;45.544;10.218;2023-05-10T10:10:29;99623.59;;;15.69;80.29
80393;BME280;69719;45.544;10.218;2023-05-10T10:12:55;99625.75;;;15.77;80.61
80393;BME280;69719;45.544;10.218;2023-05-10T10:15:21;99616.72;;;15.58;80.02
80393;BME280;69719;45.544;10.218;2023-05-10T10:17:48;99627.00;;;15.65;79.85
80393;BME280;69719;45.544;10.218;2023-05-10T10:20:15;99626.28;;;15.79;80.64
80393;BME280;69719;45.544;10.218;2023-05-10T10:22:40;99625.63;;;15.57;81.89
80393;BME280;69719;45.544;10.218;2023-05-10T10:25:07;99630.09;;;15.57;80.30
80393;BME280;69719;45.544;10.218;2023-05-10T10:30:43;99624.53;;;15.48;80.56
80393;BME280;69719;45.544;10.218;2023-05-10T10:36:02;99627.78;;;15.70;80.70
80393;BME280;69719;45.544;10.218;2023-05-10T10:41:33;99635.97;;;15.74;78.27
80393;BME280;69719;45.544;10.218;2023-05-10T10:50:01;99627.78;;;15.65;80.89
80393;BME280;69719;45.544;10.218;2023-05-10T10:52:34;99625.75;;;15.40;81.42
80393;BME280;69719;45.544;10.218;2023-05-10T10:55:04;99628.84;;;15.32;81.97
80393;BME280;69719;45.544;10.218;2023-05-10T10:57:33;99621.38;;;15.46;82.94
80393;BME280;69719;45.544;10.218;2023-05-10T11:00:35;99619.91;;;15.65;81.02
80393;BME280;69719;45.544;10.218;2023-05-10T11:03:10;99622.97;;;15.52;80.44
80393;BME280;69719;45.544;10.218;2023-05-10T11:05:45;99625.94;;;15.34;81.00
80393;BME280;69719;45.544;10.218;2023-05-10T11:08:12;99620.91;;;15.27;82.81
80393;BME280;69719;45.544;10.218;2023-05-10T11:10:38;99616.50;;;15.65;82.56
80393;BME280;69719;45.544;10.218;2023-05-10T11:13:05;99615.38;;;15.56;83.36
80393;BME280;69719;45.544;10.218;2023-05-10T11:15:37;99609.16;;;15.30;82.04
80393;BME280;69719;45.544;10.218;2023-05-10T11:20:43;99618.81;;;15.56;82.26
80393;BME280;69719;45.544;10.218;2023-05-10T11:23:13;99617.78;;;15.62;81.52
80393;BME280;69719;45.544;10.218;2023-05-10T11:25:42;99606.88;;;15.85;79.96
80393;BME280;69719;45.544;10.218;2023-05-10T11:28:08;99606.28;;;15.68;81.18
80393;BME280;69719;45.544;10.218;2023-05-10T11:30:41;99609.34;;;15.55;81.44
80393;BME280;69719;45.544;10.218;2023-05-10T11:33:08;99608.94;;;15.73;81.70
80393;BME280;69719;45.544;10.218;2023-05-10T11:35:39;99607.69;;;15.44;82.09
80393;BME280;69719;45.544;10.218;2023-05-10T11:38:12;99611.69;;;15.20;82.08
80393;BME280;69719;45.544;10.218;2023-05-10T11:40:38;99619.97;;;15.07;83.74
80393;BME280;69719;45.544;10.218;2023-05-10T11:43:04;99608.75;;;15.11;83.10
80393;BME280;69719;45.544;10.218;2023-05-10T11:45:34;99610.31;;;15.12;84.35
80393;BME280;69719;45.544;10.218;2023-05-10T11:48:00;99609.09;;;15.20;84.11
80393;BME280;69719;45.544;10.218;2023-05-10T11:50:26;99609.41;;;15.28;84.95
80393;BME280;69719;45.544;10.218;2023-05-10T11:52:53;99610.00;;;15.40;82.71
80393;BME280;69719;45.544;10.218;2023-05-10T11:55:19;99615.22;;;15.72;82.21
80393;BME280;69719;45.544;10.218;2023-05-10T11:57:44;99617.31;;;15.70;82.21
80393;BME280;69719;45.544;10.218;2023-05-10T12:00:14;99612.72;;;15.19;83.28
80393;BME280;69719;45.544;10.218;2023-05-10T12:02:40;99623.31;;;15.29;83.29
80393;BME280;69719;45.544;10.218;2023-05-10T12:05:09;99610.44;;;15.64;83.49
80393;BME280;69719;45.544;10.218;2023-05-10T12:07:35;99615.47;;;15.71;82.05
80393;BME280;69719;45.544;10.218;2023-05-10T12:10:04;99619.34;;;15.63;81.19
80393;BME280;69719;45.544;10.218;2023-05-10T12:12:46;99620.72;;;15.34;80.77
80393;BME280;69719;45.544;10.218;2023-05-10T12:15:19;99615.34;;;15.19;81.82
80393;BME280;69719;45.544;10.218;2023-05-10T12:17:45;99616.16;;;15.19;81.95
80393;BME280;69719;45.544;10.218;2023-05-10T12:20:21;99619.91;;;15.33;81.98
80393;BME280;69719;45.544;10.218;2023-05-10T12:25:13;99615.81;;;15.11;83.27
80393;BME280;69719;45.544;10.218;2023-05-10T12:27:38;99620.84;;;15.17;84.98
80393;BME280;69719;45.544;10.218;2023-05-10T12:30:04;99607.00;;;15.22;82.93
80393;BME280;69719;45.544;10.218;2023-05-10T12:32:40;99619.34;;;15.26;82.13
80393;BME280;69719;45.544;10.218;2023-05-10T12:35:06;99614.88;;;15.22;83.26
80393;BME280;69719;45.544;10.218;2023-05-10T12:37:31;99618.78;;;15.19;82.01
80393;BME280;69719;45.544;10.218;2023-05-10T12:40:00;99614.78;;;15.12;82.91
80393;BME280;69719;45.544;10.218;2023-05-10T12:42:26;99624.69;;;15.05;82.00
80393;BME280;69719;45.544;10.218;2023-05-10T12:44:55;99620.47;;;15.04;82.28
80393;BME280;69719;45.544;10.218;2023-05-10T12:47:21;99623.53;;;14.96;82.35
80393;BME280;69719;45.544;10.218;2023-05-10T12:49:47;99620.19;;;15.00;82.83
80393;BME280;69719;45.544;10.218;2023-05-10T12:52:12;99618.78;;;14.93;83.70
80393;BME280;69719;45.544;10.218;2023-05-10T12:54:38;99620.19;;;15.00;83.17
80393;BME280;69719;45.544;10.218;2023-05-10T12:57:03;99624.69;;;15.05;83.90
80393;BME280;69719;45.544;10.218;2023-05-10T12:59:29;99630.38;;;14.97;83.04
80393;BME280;69719;45.544;10.218;2023-05-10T13:01:54;99619.19;;;15.06;83.97
80393;BME280;69719;45.544;10.218;2023-05-10T13:04:19;99625.22;;;15.07;83.47
80393;BME280;69719;45.544;10.218;2023-05-10T13:06:45;99616.31;;;15.08;83.79
80393;BME280;69719;45.544;10.218;2023-05-10T13:09:11;99624.47;;;15.11;83.27
80393;BME280;69719;45.544;10.218;2023-05-10T13:11:36;99631.25;;;15.07;83.40
80393;BME280;69719;45.544;10.218;2023-05-10T13:14:02;99620.06;;;15.17;83.16
80393;BME280;69719;45.544;10.218;2023-05-10T13:16:28;99621.34;;;15.14;83.01
80393;BME280;69719;45.544;10.218;2023-05-10T13:18:54;99619.97;;;15.07;83.37
80393;BME280;69719;45.544;10.218;2023-05-10T13:21:19;99616.91;;;15.15;83.88
80393;BME280;69719;45.544;10.218;2023-05-10T13:23:45;99620.56;;;15.14;83.24
80393;BME280;69719;45.544;10.218;2023-05-10T13:26:11;99617.19;;;15.18;84.52
80393;BME280;69719;45.544;10.218;2023-05-10T13:28:37;99621.13;;;15.21;83.26
80393;BME280;69719;45.544;10.218;2023-05-10T13:31:04;99620.97;;;15.32;81.53
80393;BME280;69719;45.544;10.218;2023-05-10T13:33:30;99613.44;;;15.41;81.84